Time;durP1;ratioP1;P1;durP2;ratioP2;P2;SDS_P1;SDS_P2;PMS_P1;PMS_P2;Temp;Humidity;BMP_temperature;BMP_pressure;BME280_temperature;BME280_humidity;BME280_pressure;Samples;Min_cycle;Max_cycle;Signal;HPM_P1;HPM_P2
2022/02/14 00:01:03;;;;;;;;;6.00;6.00;;;;;;;;2;261075935;261075935;-85
2022/02/14 00:09:18;;;;;;;;;1.50;1.50;;;;;;;;2;261075514;261075514;-85
2022/02/14 00:27:12;;;;;;;;;4.50;4.50;;;;;;;;2;261075294;261075294;-84
2022/02/14 00:36:12;;;;;;;;;3.50;3.50;;;;;;;;2;261080719;261080719;-84
2022/02/14 00:44:28;;;;;;;;;2.00;2.00;;;;;;;;2;261078673;261078673;-84
2022/02/14 00:53:28;;;;;;;;;1.50;1.50;;;;;;;;2;261077342;261077342;-84
2022/02/14 01:01:43;;;;;;;;;3.00;3.00;;;;;;;;2;261076453;261076453;-84
2022/02/14 01:10:44;;;;;;;;;5.50;5.50;;;;;;;;2;261077429;261077429;-84
2022/02/14 01:18:59;;;;;;;;;3.00;3.00;;;;;;;;2;261075617;261075617;-84
2022/02/14 01:28:00;;;;;;;;;7.00;3.00;;;;;;;;2;261075896;261075896;-84
2022/02/14 01:36:15;;;;;;;;;4.50;3.00;;;;;;;;2;261077469;261077469;-84
2022/02/14 01:45:16;;;;;;;;;3.00;3.00;;;;;;;;2;261075787;261075787;-84
2022/02/14 01:53:31;;;;;;;;;3.00;3.00;;;;;;;;2;261078664;261078664;-83
2022/02/14 02:02:31;;;;;;;;;1.50;1.50;;;;;;;;2;261076168;261076168;-83
2022/02/14 02:10:47;;;;;;;;;6.00;2.50;;;;;;;;2;261075533;261075533;-82
2022/02/14 02:19:47;;;;;;;;;4.00;4.00;;;;;;;;2;261075844;261075844;-83
2022/02/14 02:28:03;;;;;;;;;1.50;1.50;;;;;;;;2;261076781;261076781;-83
2022/02/14 02:37:03;;;;;;;;;2.00;2.00;;;;;;;;2;261077727;261077727;-83
2022/02/14 02:45:19;;;;;;;;;4.00;4.00;;;;;;;;2;261076326;261076326;-83
2022/02/14 02:54:21;;;;;;;;;1.50;1.50;;;;;;;;2;261078639;261078639;-83
2022/02/14 03:02:36;;;;;;;;;3.50;3.50;;;;;;;;2;261079289;261079289;-83
2022/02/14 03:11:37;;;;;;;;;1.50;1.50;;;;;;;;2;261074334;261074334;-83
2022/02/14 03:19:53;;;;;;;;;4.50;2.50;;;;;;;;2;261077883;261077883;-83
2022/02/14 03:28:54;;;;;;;;;7.00;7.00;;;;;;;;2;261076469;261076469;-83
2022/02/14 03:37:10;;;;;;;;;2.50;2.50;;;;;;;;2;261077183;261077183;-83
2022/02/14 03:46:11;;;;;;;;;2.50;2.50;;;;;;;;2;261078050;261078050;-82
2022/02/14 03:54:26;;;;;;;;;7.00;2.00;;;;;;;;2;261074611;261074611;-83
2022/02/14 04:03:27;;;;;;;;;0.50;0.50;;;;;;;;2;261079052;261079052;-83
2022/02/14 04:11:42;;;;;;;;;1.00;1.00;;;;;;;;2;261075893;261075893;-83
2022/02/14 04:20:43;;;;;;;;;0.00;0.00;;;;;;;;2;261078537;261078537;-83
2022/02/14 04:28:58;;;;;;;;;0.00;0.00;;;;;;;;2;261078348;261078348;-83
2022/02/14 04:37:59;;;;;;;;;0.00;0.00;;;;;;;;2;261077873;261077873;-83
2022/02/14 04:46:15;;;;;;;;;0.00;0.00;;;;;;;;2;261077926;261077926;-83
2022/02/14 04:55:15;;;;;;;;;0.00;0.00;;;;;;;;2;261077506;261077506;-82
2022/02/14 05:03:30;;;;;;;;;0.00;0.00;;;;;;;;2;261076067;261076067;-82
2022/02/14 05:12:31;;;;;;;;;1.50;1.50;;;;;;;;2;261075827;261075827;-82
2022/02/14 05:20:46;;;;;;;;;0.00;0.00;;;;;;;;2;261077746;261077746;-82
2022/02/14 05:29:47;;;;;;;;;0.00;0.00;;;;;;;;2;261076834;261076834;-82
2022/02/14 05:38:02;;;;;;;;;0.00;0.00;;;;;;;;2;261076283;261076283;-82
2022/02/14 05:47:03;;;;;;;;;0.00;0.00;;;;;;;;2;261077167;261077167;-82
2022/02/14 05:55:18;;;;;;;;;0.00;0.00;;;;;;;;2;261067403;261067403;-83
2022/02/14 06:04:19;;;;;;;;;0.00;0.00;;;;;;;;2;261064979;261064979;-82
2022/02/14 06:12:34;;;;;;;;;0.00;0.00;;;;;;;;2;261077043;261077043;-83
2022/02/14 06:21:35;;;;;;;;;1.50;0.00;;;;;;;;2;261075018;261075018;-83
2022/02/14 06:33:09;;;;;;;;;0.00;0.00;;;;;;;;2;261079221;261079221;-83
2022/02/14 06:42:10;;;;;;;;;3.50;0.00;;;;;;;;2;261077334;261077334;-83
2022/02/14 06:50:25;;;;;;;;;0.00;0.00;;;;;;;;2;261079225;261079225;-83
2022/02/14 06:59:26;;;;;;;;;0.50;0.50;;;;;;;;2;261080133;261080133;-84
2022/02/14 07:07:44;;;;;;;;;0.00;0.00;;;;;;;;2;261079397;261079397;-82
2022/02/14 07:16:45;;;;;;;;;0.00;0.00;;;;;;;;2;261081397;261081397;-81
2022/02/14 07:25:00;;;;;;;;;0.50;0.50;;;;;;;;2;261078006;261078006;-82
2022/02/14 07:34:01;;;;;;;;;0.00;0.00;;;;;;;;2;261078188;261078188;-80
2022/02/14 07:42:16;;;;;;;;;0.00;0.00;;;;;;;;2;261078814;261078814;-82
2022/02/14 07:51:17;;;;;;;;;0.00;0.00;;;;;;;;2;261075656;261075656;-80
2022/02/14 07:59:33;;;;;;;;;0.00;0.00;;;;;;;;2;261079047;261079047;-81
2022/02/14 08:08:34;;;;;;;;;1.50;1.50;;;;;;;;2;261081665;261081665;-81
2022/02/14 08:16:49;;;;;;;;;2.50;2.50;;;;;;;;2;261078855;261078855;-81
2022/02/14 08:25:52;;;;;;;;;0.50;0.50;;;;;;;;2;261082321;261082321;-86
2022/02/14 08:34:08;;;;;;;;;0.00;0.00;;;;;;;;2;261078076;261078076;-80
2022/02/14 08:43:12;;;;;;;;;0.00;0.00;;;;;;;;2;261082754;261082754;-81
2022/02/14 08:51:27;;;;;;;;;0.50;0.50;;;;;;;;2;261076871;261076871;-80
2022/02/14 09:00:28;;;;;;;;;2.50;1.00;;;;;;;;2;261082451;261082451;-81
2022/02/14 09:08:43;;;;;;;;;1.50;1.50;;;;;;;;2;261078752;261078752;-80
2022/02/14 09:17:47;;;;;;;;;0.50;0.50;;;;;;;;2;261077169;261077169;-80
2022/02/14 09:26:03;;;;;;;;;0.50;0.50;;;;;;;;2;261077681;261077681;-79
2022/02/14 09:35:03;;;;;;;;;0.00;0.00;;;;;;;;2;261075168;261075168;-80
2022/02/14 09:43:19;;;;;;;;;2.00;2.00;;;;;;;;2;261078603;261078603;-79
2022/02/14 09:52:20;;;;;;;;;12.50;0.50;;;;;;;;2;261079902;261079902;-80
2022/02/14 10:00:36;;;;;;;;;0.50;0.50;;;;;;;;2;261076560;261076560;-79
2022/02/14 10:09:36;;;;;;;;;0.50;0.50;;;;;;;;2;261075744;261075744;-80
2022/02/14 10:17:53;;;;;;;;;1.00;1.00;;;;;;;;2;261079275;261079275;-79
2022/02/14 10:26:55;;;;;;;;;1.00;1.00;;;;;;;;2;261074282;261074282;-79
2022/02/14 10:35:12;;;;;;;;;1.00;1.00;;;;;;;;2;261078740;261078740;-80
2022/02/14 10:44:15;;;;;;;;;0.00;0.00;;;;;;;;2;261076104;261076104;-79
2022/02/14 10:52:31;;;;;;;;;4.00;1.00;;;;;;;;2;261072575;261072575;-79
2022/02/14 11:01:32;;;;;;;;;1.00;1.00;;;;;;;;2;261074033;261074033;-79
2022/02/14 11:09:49;;;;;;;;;1.50;1.50;;;;;;;;2;261077916;261077916;-79
2022/02/14 11:18:51;;;;;;;;;0.50;0.50;;;;;;;;2;261076231;261076231;-79
2022/02/14 11:27:09;;;;;;;;;3.00;3.00;;;;;;;;2;261078985;261078985;-83
2022/02/14 11:36:19;;;;;;;;;6.50;2.50;;;;;;;;2;261075179;261075179;-81
2022/02/14 11:44:35;;;;;;;;;0.00;0.00;;;;;;;;2;261079016;261079016;-79
2022/02/14 11:53:44;;;;;;;;;4.00;0.00;;;;;;;;2;261075717;261075717;-80
2022/02/14 12:02:02;;;;;;;;;0.50;0.50;;;;;;;;2;261079907;261079907;-80
2022/02/14 12:11:02;;;;;;;;;0.50;0.50;;;;;;;;2;261075885;261075885;-80
2022/02/14 12:28:38;;;;;;;;;0.50;0.50;;;;;;;;2;261075939;261075939;-80
2022/02/14 12:36:57;;;;;;;;;1.00;1.00;;;;;;;;2;261074986;261074986;-80
2022/02/14 12:46:10;;;;;;;;;0.00;0.00;;;;;;;;2;261062468;261062468;-79
2022/02/14 12:54:25;;;;;;;;;14.50;2.50;;;;;;;;2;261075851;261075851;-80
2022/02/14 13:03:26;;;;;;;;;5.00;1.00;;;;;;;;2;261077395;261077395;-83
2022/02/14 13:11:41;;;;;;;;;1.50;1.50;;;;;;;;2;261078978;261078978;-81
2022/02/14 13:20:42;;;;;;;;;0.50;0.50;;;;;;;;2;261078044;261078044;-81
2022/02/14 13:28:57;;;;;;;;;0.00;0.00;;;;;;;;2;261087344;261087344;-79
2022/02/14 13:37:59;;;;;;;;;0.50;0.50;;;;;;;;2;261082800;261082800;-82
2022/02/14 13:46:16;;;;;;;;;12.50;1.00;;;;;;;;2;261083998;261083998;-83
2022/02/14 13:55:24;;;;;;;;;0.00;0.00;;;;;;;;2;261079309;261079309;-82
2022/02/14 14:03:39;;;;;;;;;0.50;0.50;;;;;;;;2;261079255;261079255;-81
2022/02/14 14:12:51;;;;;;;;;0.50;0.50;;;;;;;;2;261080235;261080235;-81
2022/02/14 14:21:07;;;;;;;;;0.00;0.00;;;;;;;;2;261081439;261081439;-81
2022/02/14 14:30:08;;;;;;;;;1.00;1.00;;;;;;;;2;261076371;261076371;-81
2022/02/14 14:38:26;;;;;;;;;0.50;0.50;;;;;;;;2;261076926;261076926;-81
2022/02/14 14:47:32;;;;;;;;;0.00;0.00;;;;;;;;2;261079477;261079477;-83
2022/02/14 14:55:48;;;;;;;;;1.50;1.50;;;;;;;;2;261077885;261077885;-83
2022/02/14 15:04:55;;;;;;;;;0.00;0.00;;;;;;;;2;261079248;261079248;-82
2022/02/14 15:13:11;;;;;;;;;4.00;0.00;;;;;;;;2;261078079;261078079;-83
2022/02/14 15:22:14;;;;;;;;;2.00;2.00;;;;;;;;2;261078244;261078244;-84
2022/02/14 15:30:29;;;;;;;;;6.50;1.50;;;;;;;;2;261078287;261078287;-84
2022/02/14 15:39:30;;;;;;;;;0.00;0.00;;;;;;;;2;261078104;261078104;-84
2022/02/14 15:47:45;;;;;;;;;0.00;0.00;;;;;;;;2;261077115;261077115;-84
2022/02/14 16:05:42;;;;;;;;;;;;;;;;;;;;;
2022/02/14 16:59:47;;;;;;;;;2.00;2.00;;;;;;;;2;261078204;261078204;-82
2022/02/14 19:04:02;;;;;;;;;;;;;;;;;;;;;
2022/02/14 19:13:05;;;;;;;;;4.50;4.50;;;;;;;;2;261108673;261108673;-84
2022/02/14 19:21:21;;;;;;;;;18.50;6.50;;;;;;;;2;261079400;261079400;-85
2022/02/14 19:30:22;;;;;;;;;6.50;6.50;;;;;;;;2;261078182;261078182;-84
2022/02/14 19:38:39;;;;;;;;;6.50;4.00;;;;;;;;2;261078974;261078974;-85
2022/02/14 19:47:40;;;;;;;;;6.50;6.50;;;;;;;;2;261080331;261080331;-85
2022/02/14 19:55:56;;;;;;;;;7.00;7.00;;;;;;;;2;261079533;261079533;-84
2022/02/14 20:04:56;;;;;;;;;8.00;8.00;;;;;;;;2;261079563;261079563;-86
2022/02/14 20:13:12;;;;;;;;;5.00;5.00;;;;;;;;2;261073465;261073465;-86
2022/02/14 20:22:15;;;;;;;;;16.50;8.00;;;;;;;;2;261074536;261074536;-85
2022/02/14 20:30:32;;;;;;;;;6.00;6.00;;;;;;;;2;261074835;261074835;-85
2022/02/14 20:39:37;;;;;;;;;6.00;6.00;;;;;;;;2;261077841;261077841;-85
2022/02/14 20:47:54;;;;;;;;;14.00;2.00;;;;;;;;2;261076141;261076141;-85
2022/02/14 20:56:56;;;;;;;;;3.50;3.50;;;;;;;;2;261079979;261079979;-83
2022/02/14 21:05:54;;;;;;;;;6.00;6.00;;;;;;;;2;261084037;261084037;-83
2022/02/14 21:23:53;;;;;;;;;8.50;8.50;;;;;;;;2;261163091;261163091;-82
2022/02/14 23:04:48;;;;;;;;;;;;;;;;;;;;;
2022/02/14 23:23:09;;;;;;;;;;;;;;;;;;;;;
2022/02/14 23:41:04;;;;;;;;;2.00;2.00;;;;;;;;2;261084049;261084049;-86
2022/02/14 23:49:28;;;;;;;;;1.00;1.00;;;;;;;;2;261077848;261077848;-85
